createdAt,value
2022-08-29T00:04:19.175Z,13.49
2022-08-29T00:09:20.872Z,13.43
2022-08-29T00:14:23.399Z,13.40
2022-08-29T00:19:25.432Z,13.35
2022-08-29T00:24:27.388Z,13.32
2022-08-29T00:29:30.191Z,13.31
2022-08-29T00:34:32.259Z,13.31
2022-08-29T00:39:34.117Z,13.28
2022-08-29T00:44:36.410Z,13.24
2022-08-29T00:49:49.651Z,13.13
2022-08-29T00:54:51.899Z,13.14
2022-08-29T00:59:53.580Z,13.13
2022-08-29T01:04:55.612Z,13.15
2022-08-29T01:09:57.273Z,13.19
2022-08-29T01:15:10.522Z,13.24
2022-08-29T01:20:40.461Z,13.21
2022-08-29T01:25:46.220Z,13.21
2022-08-29T01:31:05.203Z,13.18
2022-08-29T01:36:07.877Z,13.17
2022-08-29T01:41:10.340Z,13.14
2022-08-29T01:46:14.267Z,13.24
2022-08-29T01:51:15.992Z,13.27
2022-08-29T01:56:28.785Z,13.28
2022-08-29T02:01:32.944Z,13.21
2022-08-29T02:06:34.993Z,13.15
2022-08-29T02:11:36.707Z,13.11
2022-08-29T02:16:38.406Z,13.04
2022-08-29T02:21:41.007Z,12.96
2022-08-29T02:26:42.706Z,12.97
2022-08-29T02:31:44.429Z,12.95
2022-08-29T02:36:46.494Z,12.99
2022-08-29T02:41:51.131Z,13.03
2022-08-29T02:46:52.878Z,13.06
2022-08-29T02:51:54.624Z,13.19
2022-08-29T02:56:56.301Z,13.31
2022-08-29T03:01:58.171Z,13.30
2022-08-29T03:06:59.887Z,13.33
2022-08-29T03:12:01.653Z,13.32
2022-08-29T03:17:03.518Z,13.27
2022-08-29T03:22:05.313Z,13.32
2022-08-29T03:27:07.073Z,13.34
2022-08-29T03:32:08.745Z,13.37
2022-08-29T03:37:10.437Z,13.33
2022-08-29T03:42:12.102Z,13.31
2022-08-29T03:47:13.777Z,13.25
2022-08-29T03:52:16.064Z,13.27
2022-08-29T03:57:17.882Z,13.28
2022-08-29T04:02:19.552Z,13.28
2022-08-29T04:07:21.222Z,13.30
2022-08-29T04:12:22.894Z,13.34
2022-08-29T04:17:24.547Z,13.37
2022-08-29T04:22:26.213Z,13.39
2022-08-29T04:27:27.894Z,13.43
2022-08-29T04:32:30.315Z,13.49
2022-08-29T04:37:31.983Z,13.58
2022-08-29T04:42:35.945Z,13.61
2022-08-29T04:47:38.193Z,13.65
2022-08-29T04:52:39.982Z,13.71
2022-08-29T04:57:41.722Z,13.75
2022-08-29T05:02:43.670Z,13.73
2022-08-29T05:07:46.436Z,13.74
2022-08-29T05:12:48.208Z,13.79
2022-08-29T05:17:50.232Z,13.82
2022-08-29T05:22:51.900Z,13.85
2022-08-29T05:27:53.572Z,13.84
2022-08-29T05:32:56.028Z,13.74
2022-08-29T05:37:57.761Z,13.74
2022-08-29T05:42:59.421Z,13.77
2022-08-29T05:48:03.102Z,13.78
2022-08-29T05:53:04.788Z,13.85
2022-08-29T05:58:06.445Z,13.93
2022-08-29T06:03:08.497Z,14.07
2022-08-29T06:08:10.250Z,14.22
2022-08-29T06:13:12.433Z,14.36
2022-08-29T06:18:14.214Z,14.50
2022-08-29T06:23:15.949Z,14.62
2022-08-29T06:28:23.768Z,14.75
2022-08-29T06:33:25.889Z,14.78
2022-08-29T06:38:27.559Z,14.80
2022-08-29T06:43:29.255Z,14.88
2022-08-29T06:48:30.970Z,15.00
2022-08-29T06:53:33.083Z,15.03
2022-08-29T06:58:38.730Z,15.11
2022-08-29T07:03:41.130Z,15.22
2022-08-29T07:08:53.264Z,15.21
2022-08-29T07:13:58.566Z,15.25
2022-08-29T07:19:01.593Z,15.33
2022-08-29T07:24:03.443Z,15.44
2022-08-29T07:29:09.064Z,15.58
2022-08-29T07:34:10.748Z,15.63
2022-08-29T07:39:14.504Z,15.67
2022-08-29T07:44:16.838Z,15.89
2022-08-29T07:49:18.504Z,16.10
2022-08-29T07:54:21.768Z,16.28
2022-08-29T07:59:24.167Z,16.30
2022-08-29T08:04:25.825Z,16.48
2022-08-29T08:09:27.621Z,16.61
2022-08-29T08:14:34.730Z,16.78
2022-08-29T08:19:37.543Z,16.80
2022-08-29T08:24:39.227Z,16.88
2022-08-29T08:29:40.953Z,16.96
2022-08-29T08:34:43.013Z,16.92
2022-08-29T08:39:44.732Z,16.99
2022-08-29T08:44:58.079Z,17.24
2022-08-29T08:50:45.461Z,17.38
2022-08-29T08:55:53.505Z,17.58
2022-08-29T09:00:58.338Z,17.82
2022-08-29T09:06:07.837Z,17.90
2022-08-29T09:11:45.221Z,18.07
2022-08-29T09:16:49.374Z,18.32
2022-08-29T09:21:53.867Z,18.46
2022-08-29T09:26:56.270Z,18.53
2022-08-29T09:32:12.128Z,18.61
2022-08-29T09:37:25.928Z,18.71
2022-08-29T09:42:33.752Z,18.85
2022-08-29T09:47:35.983Z,18.94
2022-08-29T09:52:40.069Z,18.99
2022-08-29T09:57:41.733Z,19.07
2022-08-29T10:02:43.825Z,19.25
2022-08-29T10:07:50.010Z,19.39
2022-08-29T10:13:11.710Z,19.63
2022-08-29T10:18:24.073Z,19.63
2022-08-29T10:23:37.254Z,19.80
2022-08-29T10:28:43.177Z,19.81
2022-08-29T10:34:11.207Z,19.90
2022-08-29T10:39:19.228Z,20.06
2022-08-29T10:44:23.875Z,20.04
2022-08-29T10:49:43.029Z,20.19
2022-08-29T10:55:03.565Z,20.39
2022-08-29T11:00:14.947Z,20.48
2022-08-29T11:05:20.702Z,20.54
2022-08-29T11:10:27.023Z,20.62
2022-08-29T11:15:34.167Z,20.71
2022-08-29T11:20:41.847Z,20.78
2022-08-29T11:25:44.142Z,20.92
2022-08-29T11:31:02.864Z,20.83
2022-08-29T11:36:27.681Z,20.88
2022-08-29T11:41:45.967Z,21.10
2022-08-29T11:46:53.450Z,21.12
2022-08-29T11:52:00.163Z,21.24
2022-08-29T11:57:02.182Z,21.60
2022-08-29T12:02:03.956Z,22.11
2022-08-29T12:07:05.682Z,22.05
2022-08-29T12:12:13.084Z,21.80
2022-08-29T12:17:26.531Z,22.30
2022-08-29T12:22:51.857Z,23.62
2022-08-29T12:28:02.671Z,23.83
2022-08-29T12:33:26.059Z,24.61
2022-08-29T12:38:50.604Z,25.15
2022-08-29T12:43:54.141Z,24.10
2022-08-29T12:49:16.613Z,24.36
2022-08-29T12:54:29.060Z,24.88
2022-08-29T12:59:31.847Z,25.65
2022-08-29T13:04:35.178Z,25.98
2022-08-29T13:09:42.985Z,26.25
2022-08-29T13:15:02.311Z,26.22
2022-08-29T13:20:38.049Z,26.50
2022-08-29T13:25:47.335Z,26.31
2022-08-29T13:31:11.173Z,26.06
2022-08-29T13:36:30.376Z,26.29
2022-08-29T13:41:32.041Z,26.43
2022-08-29T13:46:33.748Z,26.55
2022-08-29T13:51:35.460Z,26.42
2022-08-29T14:07:05.653Z,27.82
2022-08-29T14:12:07.658Z,28.14
2022-08-29T14:17:09.560Z,27.83
2022-08-29T14:22:14.083Z,26.78
2022-08-29T14:27:15.767Z,26.12
2022-08-29T14:32:17.484Z,26.22
2022-08-29T14:37:19.864Z,26.64
2022-08-29T14:42:21.520Z,26.65
2022-08-29T14:47:23.248Z,26.54
2022-08-29T14:52:25.147Z,26.35
2022-08-29T14:57:26.954Z,26.21
2022-08-29T15:02:28.692Z,25.59
2022-08-29T15:07:30.398Z,25.51
2022-08-29T15:12:32.055Z,25.88
2022-08-29T15:17:35.156Z,26.04
2022-08-29T15:22:39.668Z,25.95
2022-08-29T15:27:41.796Z,25.90
2022-08-29T15:32:43.455Z,26.02
2022-08-29T15:37:50.839Z,25.85
2022-08-29T15:42:52.533Z,25.27
2022-08-29T15:47:54.400Z,25.23
2022-08-29T15:52:56.108Z,25.16
2022-08-29T15:57:57.916Z,25.49
2022-08-29T16:03:01.081Z,25.45
2022-08-29T16:08:03.106Z,25.54
2022-08-29T16:13:04.831Z,25.85
2022-08-29T16:18:06.684Z,25.90
2022-08-29T16:23:08.355Z,26.26
2022-08-29T16:28:10.014Z,26.26
2022-08-29T16:33:11.699Z,25.90
2022-08-29T16:38:13.431Z,25.63
2022-08-29T16:43:15.157Z,25.39
2022-08-29T16:48:17.722Z,25.10
2022-08-29T16:53:20.704Z,24.84
2022-08-29T16:58:41.063Z,24.73
2022-08-29T17:03:42.939Z,24.76
2022-08-29T17:08:44.602Z,24.82
2022-08-29T17:13:46.228Z,25.01
2022-08-29T17:18:48.084Z,24.97
2022-08-29T17:23:49.909Z,24.83
2022-08-29T17:28:51.832Z,24.80
2022-08-29T17:33:53.496Z,24.85
2022-08-29T17:38:55.413Z,24.67
2022-08-29T17:43:57.086Z,24.48
2022-08-29T17:48:58.767Z,24.19
2022-08-29T17:54:00.433Z,23.76
2022-08-29T17:59:05.339Z,23.57
2022-08-29T18:04:08.281Z,23.26
2022-08-29T18:09:10.025Z,23.04
2022-08-29T18:14:11.755Z,22.70
2022-08-29T18:19:13.473Z,22.38
2022-08-29T18:24:15.693Z,22.19
2022-08-29T18:29:17.604Z,21.87
2022-08-29T18:34:19.301Z,21.68
2022-08-29T18:39:20.977Z,21.47
2022-08-29T18:44:24.569Z,21.32
2022-08-29T18:49:45.043Z,21.13
2022-08-29T18:54:46.711Z,20.93
2022-08-29T18:59:48.486Z,20.78
2022-08-29T19:04:50.704Z,20.61
2022-08-29T19:09:53.000Z,20.41
2022-08-29T19:14:56.110Z,20.26
2022-08-29T19:20:16.388Z,20.13
2022-08-29T19:25:18.068Z,20.03
2022-08-29T19:30:19.751Z,19.86
2022-08-29T19:35:22.065Z,19.73
2022-08-29T19:40:23.833Z,19.55
2022-08-29T19:45:25.557Z,19.42
2022-08-29T19:50:27.275Z,19.26
2022-08-29T19:55:29.113Z,19.14
2022-08-29T20:00:30.777Z,19.02
2022-08-29T20:05:32.491Z,18.89
2022-08-29T20:10:34.893Z,18.77
2022-08-29T20:15:36.544Z,18.77
2022-08-29T20:20:38.192Z,18.70
2022-08-29T20:25:41.098Z,18.69
2022-08-29T20:30:42.851Z,18.56
2022-08-29T20:36:03.127Z,18.49
2022-08-29T20:41:04.856Z,18.46
2022-08-29T20:46:07.920Z,18.39
2022-08-29T20:51:09.859Z,18.34
2022-08-29T20:56:12.151Z,18.30
2022-08-29T21:01:13.942Z,18.23
2022-08-29T21:06:18.300Z,18.11
2022-08-29T21:11:20.729Z,18.03
2022-08-29T21:16:22.661Z,17.92
2022-08-29T21:21:25.188Z,17.77
2022-08-29T21:26:26.964Z,17.67
2022-08-29T21:31:28.683Z,17.57
2022-08-29T21:36:30.421Z,17.46
2022-08-29T21:41:32.307Z,17.32
2022-08-29T21:46:36.122Z,17.20
2022-08-29T21:51:37.926Z,17.04
2022-08-29T21:56:39.604Z,16.98
2022-08-29T22:01:41.480Z,16.90
2022-08-29T22:06:43.682Z,17.03
2022-08-29T22:11:46.045Z,16.96
2022-08-29T22:16:47.716Z,16.82
2022-08-29T22:21:51.834Z,16.68
2022-08-29T22:26:53.511Z,16.58
2022-08-29T22:31:56.735Z,16.45
2022-08-29T22:36:58.385Z,16.35
2022-08-29T22:42:00.047Z,16.31
2022-08-29T22:47:02.149Z,16.23
2022-08-29T22:52:04.325Z,16.13
2022-08-29T22:57:07.996Z,16.05
2022-08-29T23:02:09.881Z,16.01
2022-08-29T23:07:12.233Z,16.01
2022-08-29T23:12:13.970Z,15.91
2022-08-29T23:17:15.804Z,15.78
2022-08-29T23:22:17.491Z,15.74
2022-08-29T23:27:19.232Z,15.69
2022-08-29T23:32:20.938Z,15.61
2022-08-29T23:37:22.797Z,15.61
2022-08-29T23:42:24.744Z,15.58
2022-08-29T23:47:26.426Z,15.58
2022-08-29T23:52:28.137Z,15.57
2022-08-29T23:57:29.829Z,15.52
